Terminal Aerodrome Forecast
Issued by NWS North Platte, NE

Home | Current Version | Previous Version | Text Only | Print | Product List | Glossary On
Versions: 1 2 3 4 5 6 7 8 9 10 11 12 13 14 15
000
FTUS43 KLBF 251720
TAFVTN
TAF
KVTN 251720Z 2518/2618 27005KT P6SM FEW150
     FM260200 15005KT P6SM SCT200
     FM260500 30005KT P6SM SCT120
     FM261400 06005KT P6SM FEW200=

USA.gov is the U.S. government's official web portal to all federal, state and local government web resources and services.